createdAt,value
2024-02-01T00:01:24.190Z,80.55
2024-02-01T00:03:52.665Z,88.47
2024-02-01T00:06:21.266Z,92.60
2024-02-01T00:08:49.796Z,86.78
2024-02-01T00:11:18.613Z,82.10
2024-02-01T00:13:48.637Z,80.93
2024-02-01T00:16:22.358Z,82.63
2024-02-01T00:18:51.075Z,81.25
2024-02-01T00:21:20.506Z,78.05
2024-02-01T00:23:49.023Z,79.28
2024-02-01T00:26:17.432Z,82.07
2024-02-01T00:28:47.433Z,74.75
2024-02-01T00:31:15.783Z,88.90
2024-02-01T00:33:44.255Z,81.43
2024-02-01T00:36:12.806Z,89.60
2024-02-01T00:38:41.245Z,87.88
2024-02-01T00:41:09.712Z,84.13
2024-02-01T00:43:38.169Z,72.97
2024-02-01T00:46:08.148Z,78.15
2024-02-01T00:48:36.808Z,85.03
2024-02-01T00:51:06.120Z,68.88
2024-02-01T00:53:34.556Z,78.03
2024-02-01T00:56:02.929Z,81.85
2024-02-01T00:58:31.308Z,95.07
2024-02-01T01:01:00.323Z,75.85
2024-02-01T01:03:30.254Z,80.45
2024-02-01T01:05:58.706Z,79.38
2024-02-01T01:08:27.256Z,75.97
2024-02-01T01:10:55.644Z,81.22
2024-02-01T01:13:24.105Z,75.90
2024-02-01T01:15:54.731Z,73.22
2024-02-01T01:18:23.735Z,75.90
2024-02-01T01:20:53.754Z,76.18
2024-02-01T01:23:22.684Z,73.63
2024-02-01T01:25:51.815Z,69.72
2024-02-01T01:28:20.932Z,69.45
2024-02-01T01:30:52.839Z,80.45
2024-02-01T01:33:24.350Z,72.97
2024-02-01T01:35:54.874Z,70.63
2024-02-01T01:38:24.349Z,76.90
2024-02-01T01:40:53.354Z,70.13
2024-02-01T01:43:22.538Z,67.53
2024-02-01T01:46:02.898Z,76.15
2024-02-01T01:48:32.792Z,76.35
2024-02-01T01:51:03.720Z,72.75
2024-02-01T01:53:35.363Z,74.72
2024-02-01T01:56:04.494Z,73.72
2024-02-01T01:58:36.010Z,73.22
2024-02-01T02:01:05.573Z,74.68
2024-02-01T02:03:38.683Z,68.18
2024-02-01T02:06:09.448Z,70.53
2024-02-01T02:08:38.431Z,73.13
2024-02-01T02:11:07.523Z,75.82
2024-02-01T02:13:36.586Z,73.35
2024-02-01T02:16:05.307Z,72.20
2024-02-01T02:18:33.778Z,75.47
2024-02-01T02:21:05.124Z,74.80
2024-02-01T02:23:36.088Z,73.22
2024-02-01T02:26:08.673Z,72.97
2024-02-01T02:28:40.225Z,69.15
2024-02-01T02:31:08.604Z,70.95
2024-02-01T02:33:37.044Z,88.85
2024-02-01T02:36:11.103Z,73.30
2024-02-01T02:38:42.071Z,76.75
2024-02-01T02:41:10.468Z,77.75
2024-02-01T02:43:38.727Z,62.70
2024-02-01T02:46:07.114Z,64.20
2024-02-01T02:48:35.927Z,65.55
2024-02-01T02:51:04.492Z,66.63
2024-02-01T02:53:33.116Z,62.92
2024-02-01T02:56:06.372Z,65.88
2024-02-01T02:58:36.544Z,70.65
2024-02-01T03:01:09.523Z,68.15
2024-02-01T03:03:41.736Z,62.28
2024-02-01T03:06:10.943Z,69.18
2024-02-01T03:08:41.086Z,63.92
2024-02-01T03:11:12.108Z,57.63
2024-02-01T03:13:41.099Z,59.67
2024-02-01T03:16:17.936Z,71.00
2024-02-01T03:18:46.823Z,69.07
2024-02-01T03:21:16.141Z,69.97
2024-02-01T03:23:46.217Z,71.65
2024-02-01T04:34:24.772Z,66.45
2024-02-01T04:36:54.331Z,59.72
2024-02-01T04:39:22.740Z,54.25
2024-02-01T04:41:55.187Z,51.10
2024-02-01T04:44:23.681Z,57.90
2024-02-01T04:46:52.079Z,55.75
2024-02-01T04:49:20.617Z,53.83
2024-02-01T04:51:50.456Z,55.78
2024-02-01T04:54:18.904Z,57.95
2024-02-01T04:56:47.366Z,67.03
2024-02-01T04:59:15.732Z,56.58
2024-02-01T05:01:45.244Z,62.08
2024-02-01T05:04:15.071Z,63.08
2024-02-01T05:06:43.916Z,57.20
2024-02-01T05:09:27.083Z,54.38
2024-02-01T05:11:56.036Z,59.45
2024-02-01T05:14:24.772Z,60.03
2024-02-01T05:16:53.398Z,61.72
2024-02-01T05:19:23.267Z,52.25
2024-02-01T05:21:54.344Z,55.67
2024-02-01T05:24:24.673Z,62.83
2024-02-01T05:26:54.856Z,64.55
2024-02-01T05:29:24.374Z,59.72
2024-02-01T05:31:53.607Z,68.22
2024-02-01T05:34:23.222Z,58.17
2024-02-01T05:36:54.532Z,60.95
2024-02-01T05:39:27.220Z,59.08
2024-02-01T05:41:56.369Z,87.32
2024-02-01T05:44:25.847Z,78.72
2024-02-01T05:46:55.577Z,77.18
2024-02-01T05:49:24.276Z,66.25
2024-02-01T05:51:54.116Z,66.18
2024-02-01T05:54:23.915Z,64.90
2024-02-01T05:56:52.293Z,62.20
2024-02-01T05:59:22.037Z,60.28
2024-02-01T06:01:51.017Z,66.80
2024-02-01T06:04:19.528Z,70.78
2024-02-01T06:06:49.489Z,67.28
2024-02-01T06:09:19.000Z,65.00
2024-02-01T06:11:51.148Z,75.72
2024-02-01T06:14:20.121Z,74.03
2024-02-01T06:16:49.254Z,66.78
2024-02-01T06:19:19.178Z,63.70
2024-02-01T06:21:48.132Z,65.10
2024-02-01T06:24:20.209Z,54.88
2024-02-01T06:26:50.459Z,51.42
2024-02-01T06:29:19.547Z,64.40
2024-02-01T06:31:50.606Z,82.97
2024-02-01T06:34:25.931Z,100.07
2024-02-01T06:37:00.244Z,84.15
2024-02-01T06:39:52.016Z,84.20
2024-02-01T06:42:33.505Z,74.00
2024-02-01T06:45:25.986Z,64.22
2024-02-01T06:48:05.837Z,66.03
2024-02-01T06:50:56.210Z,63.08
2024-02-01T06:53:37.449Z,65.78
2024-02-01T06:56:15.573Z,78.28
2024-02-01T06:59:07.905Z,70.05
2024-02-01T07:01:55.447Z,62.22
2024-02-01T07:04:33.116Z,67.72
2024-02-01T07:07:19.060Z,64.05
2024-02-01T07:10:01.279Z,71.28
2024-02-01T07:12:44.797Z,73.80
2024-02-01T07:15:31.873Z,69.75
2024-02-01T07:18:05.156Z,64.00
2024-02-01T07:20:49.114Z,63.03
2024-02-01T07:23:40.173Z,75.53
2024-02-01T07:26:19.028Z,74.05
2024-02-01T07:29:05.707Z,68.97
2024-02-01T07:31:53.556Z,65.47
2024-02-01T07:34:39.578Z,69.40
2024-02-01T07:37:26.391Z,67.65
2024-02-01T07:40:15.171Z,70.25
2024-02-01T07:43:01.279Z,58.53
2024-02-01T07:45:47.165Z,63.97
2024-02-01T07:48:35.224Z,62.42
2024-02-01T07:51:21.558Z,66.35
2024-02-01T07:54:08.146Z,63.60
2024-02-01T07:56:54.583Z,65.47
2024-02-01T07:59:31.145Z,65.30
2024-02-01T08:02:15.046Z,60.42
2024-02-01T08:05:04.359Z,63.55
2024-02-01T08:07:50.583Z,61.53
2024-02-01T08:10:21.162Z,78.85
2024-02-01T08:12:51.014Z,64.68
2024-02-01T08:15:21.572Z,66.35
2024-02-01T08:17:52.326Z,69.18
2024-02-01T08:20:23.675Z,66.07
2024-02-01T08:22:55.989Z,68.32
2024-02-01T08:25:24.976Z,62.38
2024-02-01T08:27:56.142Z,66.43
2024-02-01T08:30:29.359Z,56.53
2024-02-01T08:35:42.038Z,57.15
2024-02-01T08:38:12.444Z,58.25
2024-02-01T08:40:42.689Z,74.45
2024-02-01T08:43:14.819Z,70.75
2024-02-01T08:45:46.561Z,60.92
2024-02-01T08:48:16.378Z,66.00
2024-02-01T08:50:53.222Z,78.15
2024-02-01T08:53:24.112Z,72.50
2024-02-01T08:55:57.266Z,65.82
2024-02-01T08:58:28.325Z,68.70
2024-02-01T09:00:57.541Z,64.00
2024-02-01T09:03:31.475Z,57.78
2024-02-01T09:06:27.057Z,62.10
2024-02-01T09:09:26.369Z,64.60
2024-02-01T09:16:02.326Z,71.43
2024-02-01T09:18:31.643Z,67.68
2024-02-01T09:21:08.869Z,72.72
2024-02-01T09:23:41.803Z,69.93
2024-02-01T09:28:43.064Z,68.10
2024-02-01T09:31:21.127Z,63.15
2024-02-01T09:33:52.481Z,69.60
2024-02-01T09:36:22.446Z,65.70
2024-02-01T09:38:53.881Z,67.90
2024-02-01T09:41:22.781Z,70.10
2024-02-01T09:43:53.607Z,64.20
2024-02-01T09:46:22.981Z,70.47
2024-02-01T09:48:56.499Z,65.88
2024-02-01T09:51:25.305Z,72.20
2024-02-01T09:53:55.713Z,65.68
2024-02-01T09:56:27.392Z,71.60
2024-02-01T09:58:57.484Z,75.13
2024-02-01T10:01:26.710Z,69.60
2024-02-01T10:03:55.599Z,63.60
2024-02-01T10:06:25.747Z,70.85
2024-02-01T10:08:56.007Z,73.82
2024-02-01T10:11:24.555Z,73.30
2024-02-01T10:13:53.036Z,74.47
2024-02-01T10:16:23.107Z,71.60
2024-02-01T10:18:56.544Z,73.03
2024-02-01T10:21:33.063Z,74.10
2024-02-01T10:26:41.337Z,69.57
2024-02-01T10:29:22.035Z,68.72
2024-02-01T10:31:57.723Z,68.00
2024-02-01T10:34:28.410Z,64.93
2024-02-01T10:37:02.624Z,75.47
2024-02-01T10:40:07.018Z,71.95
2024-02-01T10:42:37.970Z,67.07
2024-02-01T10:45:11.085Z,71.18
2024-02-01T10:47:49.441Z,71.47
2024-02-01T10:50:20.807Z,77.63
2024-02-01T10:52:52.150Z,78.28
2024-02-01T10:55:24.511Z,98.57
2024-02-01T10:57:53.774Z,101.07
2024-02-01T11:00:23.795Z,119.30
2024-02-01T11:02:59.637Z,66.38
2024-02-01T11:05:32.805Z,88.93
2024-02-01T11:08:01.620Z,64.50
2024-02-01T11:10:32.629Z,70.35
2024-02-01T11:13:01.270Z,65.75
2024-02-01T11:15:33.628Z,64.43
2024-02-01T11:18:10.948Z,72.07
2024-02-01T11:20:41.104Z,69.90
2024-02-01T11:23:09.841Z,69.95
2024-02-01T11:25:41.194Z,72.13
2024-02-01T11:28:13.664Z,71.15
2024-02-01T11:30:58.762Z,69.70
2024-02-01T11:33:36.083Z,66.75
2024-02-01T11:36:08.699Z,69.55
2024-02-01T11:38:37.768Z,69.35
2024-02-01T11:41:08.191Z,65.50
2024-02-01T11:43:40.042Z,59.08
2024-02-01T11:46:08.895Z,64.85
2024-02-01T11:48:43.829Z,66.10
2024-02-01T11:51:12.752Z,71.97
2024-02-01T11:53:41.216Z,74.45
2024-02-01T11:56:11.906Z,63.63
2024-02-01T11:58:40.361Z,69.40
2024-02-01T12:01:16.725Z,75.70
2024-02-01T12:03:51.132Z,70.80
2024-02-01T12:06:24.546Z,63.42
2024-02-01T12:08:53.851Z,64.60
2024-02-01T12:11:30.237Z,64.90
2024-02-01T12:14:02.658Z,67.70
2024-02-01T12:16:34.377Z,70.15
2024-02-01T12:19:05.767Z,65.13
2024-02-01T12:21:36.892Z,56.47
2024-02-01T12:24:05.743Z,61.85
2024-02-01T12:26:44.294Z,59.90
2024-02-01T12:29:12.868Z,62.50
2024-02-01T12:31:42.521Z,56.40
2024-02-01T12:34:14.865Z,58.38
2024-02-01T12:36:46.358Z,68.05
2024-02-01T12:39:15.344Z,61.20
2024-02-01T12:41:48.036Z,54.13
2024-02-01T12:44:17.693Z,56.00
2024-02-01T12:50:43.743Z,68.82
2024-02-01T12:56:55.409Z,70.60
2024-02-01T14:11:07.814Z,21.13
2024-02-01T14:23:43.180Z,26.20
2024-02-01T14:26:19.306Z,27.70
2024-02-01T14:28:50.842Z,19.90
2024-02-01T14:31:33.532Z,22.38
2024-02-01T14:34:03.067Z,23.70
2024-02-01T14:36:41.155Z,38.35
2024-02-01T14:39:23.439Z,31.05
2024-02-01T14:42:00.441Z,29.33
2024-02-01T14:44:30.081Z,25.05
2024-02-01T14:46:58.764Z,29.35
2024-02-01T14:49:27.771Z,24.40
2024-02-01T14:51:57.404Z,31.88
2024-02-01T14:54:27.606Z,38.55
2024-02-01T14:56:56.130Z,27.45
2024-02-01T14:59:25.469Z,23.73
2024-02-01T15:01:54.190Z,21.58
2024-02-01T15:04:22.920Z,19.80
2024-02-01T15:06:51.793Z,18.95
2024-02-01T15:09:22.935Z,16.45
2024-02-01T15:11:53.475Z,18.25
2024-02-01T15:14:22.209Z,20.60
2024-02-01T15:16:50.889Z,18.67
2024-02-01T15:19:20.800Z,21.15
2024-02-01T15:21:52.636Z,23.45
2024-02-01T15:24:24.046Z,30.63
2024-02-01T15:26:58.993Z,33.75
2024-02-01T15:29:27.597Z,33.92
2024-02-01T15:31:56.753Z,32.35
2024-02-01T15:34:25.460Z,27.90
2024-02-01T15:36:54.072Z,37.88
2024-02-01T15:39:23.249Z,54.42
2024-02-01T15:41:52.564Z,51.00
2024-02-01T15:44:22.608Z,75.78
2024-02-01T15:46:51.147Z,92.07
2024-02-01T15:49:19.836Z,107.18
2024-02-01T15:51:50.144Z,77.90
2024-02-01T15:54:18.926Z,59.80
2024-02-01T15:56:49.928Z,62.83
2024-02-01T15:59:18.626Z,52.80
2024-02-01T16:01:48.520Z,38.17
2024-02-01T16:04:17.274Z,40.90
2024-02-01T16:06:45.822Z,57.35
2024-02-01T16:09:14.649Z,63.83
2024-02-01T16:11:43.622Z,55.78
2024-02-01T16:14:17.854Z,102.28
2024-02-01T16:16:48.675Z,90.82
2024-02-01T16:19:28.486Z,89.95
2024-02-01T16:21:57.330Z,105.10
2024-02-01T16:24:53.499Z,126.85
2024-02-01T16:27:57.189Z,102.00
2024-02-01T16:30:57.647Z,108.82
2024-02-01T16:33:32.234Z,55.97
2024-02-01T16:36:06.786Z,54.25
2024-02-01T16:38:40.009Z,57.70
2024-02-01T16:41:29.075Z,67.32
2024-02-01T16:43:57.722Z,65.38
2024-02-01T16:46:56.756Z,39.22
2024-02-01T16:49:38.916Z,51.47
2024-02-01T16:52:24.653Z,54.00
2024-02-01T16:54:53.519Z,34.10
2024-02-01T16:57:22.059Z,37.08
2024-02-01T16:59:51.855Z,55.78
2024-02-01T17:02:47.021Z,46.03
2024-02-01T17:05:27.311Z,43.22
2024-02-01T17:07:56.796Z,66.75
2024-02-01T17:10:49.107Z,60.65
2024-02-01T17:13:17.609Z,67.78
2024-02-01T17:15:46.420Z,60.83
2024-02-01T17:18:17.250Z,60.38
2024-02-01T17:20:47.956Z,64.68
2024-02-01T17:23:17.584Z,114.63
2024-02-01T17:26:08.994Z,161.95
2024-02-01T17:28:39.966Z,150.35
2024-02-01T17:31:16.237Z,137.20
2024-02-01T17:33:53.393Z,90.35
2024-02-01T17:36:25.198Z,94.30
2024-02-01T17:38:54.433Z,64.82
2024-02-01T17:41:23.599Z,59.03
2024-02-01T17:43:53.170Z,62.10
2024-02-01T17:46:48.395Z,51.65
2024-02-01T17:49:49.257Z,50.30
2024-02-01T17:52:49.128Z,47.67
2024-02-01T17:55:24.373Z,48.38
2024-02-01T17:57:57.376Z,59.58
2024-02-01T18:00:28.434Z,48.63
2024-02-01T18:03:00.390Z,50.97
2024-02-01T18:05:35.474Z,50.42
2024-02-01T18:08:07.292Z,50.92
2024-02-01T18:10:39.903Z,53.60
2024-02-01T18:15:55.130Z,51.50
2024-02-01T18:18:26.713Z,54.92
2024-02-01T18:20:57.079Z,47.75
2024-02-01T18:23:29.177Z,36.78
2024-02-01T18:26:05.890Z,39.08
2024-02-01T18:28:36.982Z,33.60
2024-02-01T18:31:07.533Z,38.00
2024-02-01T18:33:40.213Z,30.38
2024-02-01T18:39:02.638Z,30.10
2024-02-01T18:41:34.389Z,33.67
2024-02-01T18:44:23.877Z,59.17
2024-02-01T18:46:53.940Z,40.08
2024-02-01T18:49:25.463Z,42.45
2024-02-01T18:54:30.080Z,48.58
2024-02-01T18:57:00.135Z,57.33
2024-02-01T18:59:52.964Z,42.63
2024-02-01T19:02:54.474Z,41.63
2024-02-01T19:05:23.850Z,35.13
2024-02-01T19:08:01.752Z,35.15
2024-02-01T19:10:47.838Z,38.45
2024-02-01T19:13:47.101Z,40.80
2024-02-01T19:16:19.483Z,35.58
2024-02-01T19:18:48.745Z,42.33
2024-02-01T19:21:17.949Z,42.00
2024-02-01T19:23:46.729Z,43.35
2024-02-01T19:26:17.674Z,41.53
2024-02-01T19:28:57.989Z,41.70
2024-02-01T19:31:26.864Z,38.53
2024-02-01T19:34:02.391Z,39.60
2024-02-01T19:36:34.099Z,38.35
2024-02-01T19:39:11.854Z,37.72
2024-02-01T19:41:45.858Z,37.95
2024-02-01T19:44:15.131Z,36.88
2024-02-01T19:46:44.419Z,37.38
2024-02-01T19:49:15.062Z,38.65
2024-02-01T19:51:46.326Z,38.70
2024-02-01T19:54:19.499Z,38.45
2024-02-01T19:56:52.967Z,35.22
2024-02-01T19:59:23.645Z,32.15
2024-02-01T20:01:52.529Z,32.00
2024-02-01T20:04:22.688Z,30.63
2024-02-01T20:06:51.645Z,36.22
2024-02-01T20:09:20.087Z,34.25
2024-02-01T20:11:50.274Z,35.05
2024-02-01T20:14:19.069Z,30.98
2024-02-01T20:16:47.648Z,32.88
2024-02-01T20:19:16.847Z,28.90
2024-02-01T20:21:46.383Z,33.88
2024-02-01T20:24:17.413Z,26.45
2024-02-01T20:26:49.638Z,30.40
2024-02-01T20:29:20.491Z,30.70
2024-02-01T20:31:50.542Z,31.40
2024-02-01T20:34:35.761Z,29.95
2024-02-01T20:37:06.040Z,32.65
2024-02-01T20:39:38.826Z,32.50
2024-02-01T20:42:13.572Z,32.00
2024-02-01T20:44:43.938Z,35.22
2024-02-01T20:47:15.406Z,31.98
2024-02-01T20:49:45.977Z,30.58
2024-02-01T20:52:22.218Z,32.58
2024-02-01T20:55:10.362Z,33.70
2024-02-01T20:57:40.184Z,34.70
2024-02-01T21:00:20.541Z,35.85
2024-02-01T21:03:02.691Z,33.00
2024-02-01T21:05:42.828Z,30.97
2024-02-01T21:08:15.516Z,28.77
2024-02-01T21:10:48.100Z,27.88
2024-02-01T21:13:18.190Z,33.20
2024-02-01T21:15:50.038Z,30.80
2024-02-01T21:18:22.093Z,32.93
2024-02-01T21:20:51.729Z,27.42
2024-02-01T21:23:36.595Z,29.70
2024-02-01T21:26:25.781Z,28.02
2024-02-01T21:28:59.478Z,27.30
2024-02-01T21:31:50.148Z,30.15
2024-02-01T21:34:21.847Z,34.38
2024-02-01T21:37:10.846Z,30.03
2024-02-01T21:39:50.870Z,29.80
2024-02-01T21:42:49.402Z,32.38
2024-02-01T21:45:24.832Z,30.10
2024-02-01T21:47:56.592Z,30.23
2024-02-01T21:50:26.740Z,33.63
2024-02-01T21:52:56.263Z,34.85
2024-02-01T21:55:26.855Z,29.48
2024-02-01T21:57:57.970Z,30.17
2024-02-01T22:00:26.947Z,33.95
2024-02-01T22:02:59.043Z,28.92
2024-02-01T22:05:29.143Z,32.17
2024-02-01T22:07:58.154Z,28.02
2024-02-01T22:10:26.675Z,32.28
2024-02-01T22:12:55.243Z,31.67
2024-02-01T22:15:28.357Z,30.65
2024-02-01T22:17:58.255Z,28.90
2024-02-01T22:20:27.403Z,26.40
2024-02-01T22:22:56.065Z,29.05
2024-02-01T22:25:25.336Z,24.67
2024-02-01T22:27:55.627Z,25.15
2024-02-01T22:30:24.394Z,25.75
2024-02-01T22:32:53.085Z,24.85
2024-02-01T22:35:23.186Z,29.00
2024-02-01T22:37:51.748Z,25.17
2024-02-01T22:40:20.725Z,23.65
2024-02-01T22:42:49.298Z,31.67
2024-02-01T22:45:18.070Z,25.17
2024-02-01T22:47:46.745Z,27.05
2024-02-01T22:50:15.441Z,25.77
2024-02-01T22:52:45.600Z,29.00
2024-02-01T22:55:14.214Z,27.00
2024-02-01T22:57:42.886Z,26.67
2024-02-01T23:00:18.760Z,27.88
2024-02-01T23:02:47.312Z,25.73
2024-02-01T23:05:15.789Z,21.88
2024-02-01T23:07:45.652Z,25.55
2024-02-01T23:10:18.808Z,26.10
2024-02-01T23:12:47.396Z,36.08
2024-02-01T23:15:16.161Z,25.48
2024-02-01T23:17:45.045Z,21.27
2024-02-01T23:20:14.384Z,22.55
2024-02-01T23:22:44.194Z,21.92
2024-02-01T23:25:14.494Z,22.20
2024-02-01T23:27:44.576Z,21.90
2024-02-01T23:30:14.099Z,24.17
2024-02-01T23:32:42.569Z,22.02
2024-02-01T23:35:11.089Z,21.52
2024-02-01T23:37:39.846Z,23.95
2024-02-01T23:40:12.246Z,21.95
2024-02-01T23:42:42.614Z,19.55
2024-02-01T23:45:12.220Z,21.38
2024-02-01T23:47:41.753Z,19.75
2024-02-01T23:50:13.373Z,19.75
2024-02-01T23:52:45.795Z,20.40
2024-02-01T23:55:14.290Z,16.67
2024-02-01T23:57:44.248Z,21.77
